Time;durP1;ratioP1;P1;durP2;ratioP2;P2;SDS_P1;SDS_P2;PMS_P1;PMS_P2;Temp;Humidity;BMP_temperature;BMP_pressure;BME280_temperature;BME280_humidity;BME280_pressure;Samples;Min_cycle;Max_cycle;Signal;HPM_P1;HPM_P2
2022/03/13 00:01:01;;;;;;;19.53;13.83;;;;;;;0.46;100.00;96293.34;5029143;27;102157;-62
2022/03/13 00:03:29;;;;;;;16.73;13.93;;;;;;;0.24;100.00;96286.53;5033682;27;102340;-62
2022/03/13 00:05:58;;;;;;;15.33;12.23;;;;;;;0.14;100.00;96288.66;5031095;27;101835;-62
2022/03/13 00:08:28;;;;;;;15.83;11.30;;;;;;;0.05;100.00;96280.13;5046015;27;104842;-62
2022/03/13 00:11:04;;;;;;;13.90;9.93;;;;;;;-0.08;100.00;96289.66;5020015;28;105139;-62
2022/03/13 00:13:40;;;;;;;14.60;8.67;;;;;;;-0.16;100.00;96284.56;5048768;27;101910;-62
2022/03/13 00:16:09;;;;;;;13.17;8.70;;;;;;;-0.10;100.00;96281.22;5032601;27;102299;-62
2022/03/13 00:18:37;;;;;;;13.57;9.73;;;;;;;-0.35;100.00;96279.94;5031245;28;102744;-62
2022/03/13 00:21:06;;;;;;;12.60;9.40;;;;;;;-0.10;100.00;96284.63;5048830;27;101932;-62
2022/03/13 00:23:34;;;;;;;14.47;9.83;;;;;;;-0.04;100.00;96280.47;5036870;27;102732;-62
2022/03/13 00:26:01;;;;;;;10.60;8.60;;;;;;;-0.38;100.00;96279.50;5034584;28;103521;-62
2022/03/13 00:28:28;;;;;;;16.33;10.03;;;;;;;-0.27;100.00;96274.63;5046180;27;102954;-62
2022/03/13 00:31:15;;;;;;;14.37;10.27;;;;;;;-0.18;100.00;96270.88;5050478;27;102465;-62
2022/03/13 00:33:42;;;;;;;15.83;10.53;;;;;;;-0.19;100.00;96271.88;5033945;27;101792;-62
2022/03/13 00:36:11;;;;;;;17.77;13.37;;;;;;;0.00;100.00;96274.66;5037650;27;105337;-62
2022/03/13 00:38:38;;;;;;;16.93;12.27;;;;;;;0.07;100.00;96274.72;5048730;27;105620;-62
2022/03/13 00:41:07;;;;;;;13.03;10.07;;;;;;;0.02;100.00;96274.47;5045084;27;101910;-62
2022/03/13 00:44:13;;;;;;;16.40;10.87;;;;;;;-0.02;100.00;96270.63;5029018;28;105568;-62
2022/03/13 00:46:40;;;;;;;12.17;9.37;;;;;;;0.04;100.00;96265.47;5031991;27;105723;-62
2022/03/13 00:49:07;;;;;;;13.07;9.57;;;;;;;-0.07;100.00;96267.75;5048537;27;105597;-62
2022/03/13 00:51:38;;;;;;;14.23;10.13;;;;;;;-0.10;100.00;96270.75;5038738;27;105235;-62
2022/03/13 00:54:05;;;;;;;14.67;9.50;;;;;;;-0.05;100.00;96261.34;5048830;27;101908;-62
2022/03/13 00:56:32;;;;;;;15.30;10.20;;;;;;;0.00;100.00;96266.03;5048233;27;105238;-62
2022/03/13 00:59:01;;;;;;;11.10;8.97;;;;;;;0.05;100.00;96264.44;5031648;27;104070;-62
2022/03/13 01:01:34;;;;;;;14.00;9.53;;;;;;;0.05;100.00;96266.25;5042120;27;101935;-62
2022/03/13 01:04:01;;;;;;;11.87;9.33;;;;;;;-0.32;100.00;96265.72;5048621;27;105656;-62
2022/03/13 01:06:28;;;;;;;11.87;8.70;;;;;;;-0.22;100.00;96259.16;5037916;27;102533;-62
2022/03/13 01:08:57;;;;;;;13.90;9.57;;;;;;;-0.46;100.00;96249.09;5033146;27;101965;-62
2022/03/13 01:11:41;;;;;;;13.47;9.00;;;;;;;-0.50;100.00;96255.69;5029210;27;105709;-62
2022/03/13 01:14:50;;;;;;;14.13;9.57;;;;;;;-0.69;100.00;96247.63;5047393;27;101951;-62
2022/03/13 01:17:20;;;;;;;12.13;8.67;;;;;;;-0.74;100.00;96244.78;5048621;27;104044;-62
2022/03/13 01:20:14;;;;;;;11.53;9.13;;;;;;;-0.65;100.00;96241.88;5049098;27;105890;-62
2022/03/13 01:22:41;;;;;;;11.53;8.63;;;;;;;-0.71;100.00;96239.19;5036342;27;101823;-62
2022/03/13 01:25:10;;;;;;;16.47;8.87;;;;;;;-0.87;100.00;96242.84;5051267;27;103174;-62
2022/03/13 01:27:37;;;;;;;11.77;8.30;;;;;;;-0.98;100.00;96240.69;5028668;27;105103;-62
2022/03/13 01:30:05;;;;;;;10.90;8.20;;;;;;;-1.15;100.00;96239.25;5029355;28;101960;-62
2022/03/13 01:32:32;;;;;;;11.23;8.60;;;;;;;-1.07;100.00;96239.19;5044880;27;105525;-62
2022/03/13 01:34:59;;;;;;;20.67;12.20;;;;;;;-1.10;100.00;96244.75;5047393;27;101943;-62
2022/03/13 01:37:32;;;;;;;22.67;12.60;;;;;;;-0.96;100.00;96236.09;5029914;27;102843;-62
2022/03/13 01:40:01;;;;;;;19.20;10.23;;;;;;;-0.85;100.00;96227.78;5027743;28;106833;-62
2022/03/13 01:42:29;;;;;;;11.97;8.97;;;;;;;-0.81;100.00;96239.50;5028370;27;102006;-62
2022/03/13 01:44:56;;;;;;;17.17;10.07;;;;;;;-0.86;100.00;96231.41;5045796;27;104784;-62
2022/03/13 01:47:25;;;;;;;19.17;10.90;;;;;;;-0.75;100.00;96237.94;5027132;28;103853;-62
2022/03/13 01:50:09;;;;;;;15.60;9.77;;;;;;;-0.85;100.00;96240.03;5044760;27;102118;-62
2022/03/13 01:52:38;;;;;;;14.93;8.63;;;;;;;-0.99;100.00;96231.22;5028651;28;104927;-62
2022/03/13 01:55:07;;;;;;;11.97;8.37;;;;;;;-0.96;100.00;96233.50;5031717;28;105766;-62
2022/03/13 01:57:37;;;;;;;11.27;8.27;;;;;;;-1.07;100.00;96228.75;5029946;28;102345;-62
2022/03/13 02:00:21;;;;;;;11.03;8.63;;;;;;;-1.11;100.00;96227.47;5029577;28;103090;-62
2022/03/13 02:02:48;;;;;;;11.83;8.77;;;;;;;-1.07;100.00;96233.13;5028488;28;102021;-62
2022/03/13 02:05:29;;;;;;;11.43;8.77;;;;;;;-0.95;100.00;96229.88;5028876;28;103798;-62
2022/03/13 02:07:56;;;;;;;12.53;8.53;;;;;;;-0.94;100.00;96225.47;5029472;28;103327;-62
2022/03/13 02:10:30;;;;;;;12.07;8.37;;;;;;;-1.03;100.00;96218.75;5030186;28;101870;-62
2022/03/13 02:13:34;;;;;;;10.93;8.33;;;;;;;-1.03;100.00;96216.97;5029902;28;102489;-62
2022/03/13 02:16:03;;;;;;;9.67;7.90;;;;;;;-0.97;100.00;96224.06;5032125;27;102660;-62
2022/03/13 02:18:30;;;;;;;11.93;8.83;;;;;;;-0.98;100.00;96212.00;5037017;27;101807;-62
2022/03/13 02:21:09;;;;;;;10.80;8.23;;;;;;;-1.13;100.00;96215.59;5031875;28;105675;-62
2022/03/13 02:23:38;;;;;;;12.67;9.10;;;;;;;-0.98;100.00;96211.19;5033671;28;101820;-62
2022/03/13 02:26:07;;;;;;;12.57;8.70;;;;;;;-1.03;100.00;96214.34;5042272;27;102881;-62
2022/03/13 02:28:36;;;;;;;11.37;8.40;;;;;;;-1.21;100.00;96211.28;5052884;27;103273;-62
2022/03/13 02:31:05;;;;;;;13.30;8.43;;;;;;;-1.32;100.00;96214.38;5052480;27;101950;-62
2022/03/13 02:33:33;;;;;;;10.97;8.77;;;;;;;-1.40;100.00;96205.84;5051932;27;102609;-62
2022/03/13 02:36:02;;;;;;;12.33;7.93;;;;;;;-1.41;100.00;96205.03;5052787;27;101943;-62
2022/03/13 02:38:32;;;;;;;12.50;8.97;;;;;;;-1.43;100.00;96217.44;5043979;27;101816;-62
2022/03/13 02:41:11;;;;;;;13.03;8.90;;;;;;;-1.55;100.00;96207.63;5036312;28;102505;-62
2022/03/13 02:43:54;;;;;;;11.53;8.13;;;;;;;-1.51;100.00;96207.13;5043355;27;103351;-62
2022/03/13 02:46:23;;;;;;;10.37;8.03;;;;;;;-1.46;100.00;96204.78;5041475;27;105163;-62
2022/03/13 02:48:51;;;;;;;10.80;8.30;;;;;;;-1.34;100.00;96208.53;5032475;27;102668;-62
2022/03/13 02:54:40;;;;;;;11.47;8.50;;;;;;;-1.33;100.00;96202.31;5052030;27;103866;-62
2022/03/13 02:57:09;;;;;;;14.07;8.20;;;;;;;-1.38;100.00;96214.31;5051087;27;102838;-62
2022/03/13 02:59:35;;;;;;;11.23;8.83;;;;;;;-1.49;100.00;96215.56;5051533;27;101675;-62
2022/03/13 03:02:03;;;;;;;11.60;8.67;;;;;;;-1.60;100.00;96215.22;5039169;27;104864;-62
2022/03/13 03:04:30;;;;;;;10.07;8.40;;;;;;;-1.44;100.00;96208.00;5031682;28;101927;-62
2022/03/13 03:07:00;;;;;;;13.90;8.90;;;;;;;-1.44;100.00;96215.00;5045898;27;105312;-62
2022/03/13 03:09:30;;;;;;;11.20;8.17;;;;;;;-1.89;100.00;96212.56;5034717;27;105996;-62
2022/03/13 03:11:59;;;;;;;11.93;8.43;;;;;;;-1.81;100.00;96213.28;5045281;27;102020;-62
2022/03/13 03:14:36;;;;;;;11.57;8.83;;;;;;;-1.70;100.00;96217.28;5051663;27;104098;-62
2022/03/13 03:17:04;;;;;;;10.83;8.53;;;;;;;-1.87;100.00;96214.00;5050257;27;105243;-62
2022/03/13 03:19:32;;;;;;;12.17;8.70;;;;;;;-1.80;100.00;96220.13;5051407;27;101951;-62
2022/03/13 03:21:59;;;;;;;10.97;8.63;;;;;;;-1.88;100.00;96215.00;5038833;27;102989;-62
2022/03/13 03:24:27;;;;;;;11.03;8.10;;;;;;;-1.94;100.00;96222.72;5046874;27;102901;-62
2022/03/13 03:26:55;;;;;;;13.23;8.47;;;;;;;-2.06;100.00;96226.75;5047715;27;102841;-63
2022/03/13 03:29:24;;;;;;;12.47;8.97;;;;;;;-2.18;100.00;96223.72;5034670;27;103334;-62
2022/03/13 03:31:54;;;;;;;9.93;8.00;;;;;;;-2.40;100.00;96226.38;5032816;27;101831;-62
2022/03/13 03:34:23;;;;;;;12.60;8.73;;;;;;;-2.32;100.00;96229.72;5041441;27;102907;-62
2022/03/13 03:36:51;;;;;;;10.47;8.07;;;;;;;-2.43;100.00;96230.16;5048983;27;104343;-62
2022/03/13 03:39:20;;;;;;;13.90;9.33;;;;;;;-2.44;100.00;96225.94;5033859;27;101831;-62
2022/03/13 03:41:54;;;;;;;15.00;9.20;;;;;;;-2.47;100.00;96241.88;5031073;28;105404;-62
2022/03/13 03:44:23;;;;;;;12.40;9.37;;;;;;;-2.54;100.00;96238.38;5050120;27;102807;-62
2022/03/13 03:46:52;;;;;;;13.07;9.77;;;;;;;-2.54;100.00;96245.34;5041620;27;101895;-62
2022/03/13 03:49:20;;;;;;;14.23;9.67;;;;;;;-2.52;100.00;96248.59;5031338;27;106138;-62
2022/03/13 03:52:27;;;;;;;13.23;9.60;;;;;;;-2.46;100.00;96243.50;5042132;27;102046;-62
2022/03/13 03:54:54;;;;;;;17.00;9.77;;;;;;;-2.55;100.00;96241.94;5007310;28;105646;-62
2022/03/13 03:57:21;;;;;;;12.73;8.90;;;;;;;-2.59;100.00;96248.47;5002943;28;105872;-62
2022/03/13 04:00:02;;;;;;;12.80;9.17;;;;;;;-2.58;100.00;96242.28;4990515;28;103163;-62
2022/03/13 04:02:28;;;;;;;11.77;9.60;;;;;;;-2.81;100.00;96243.25;4990422;28;105255;-62
2022/03/13 04:04:57;;;;;;;13.53;8.97;;;;;;;-2.57;100.00;96240.50;4990086;28;105169;-62
2022/03/13 04:07:24;;;;;;;13.50;8.97;;;;;;;-2.90;100.00;96250.28;4991798;28;101899;-62
2022/03/13 04:10:06;;;;;;;12.10;9.63;;;;;;;-2.89;100.00;96241.50;4993341;28;105602;-62
2022/03/13 04:12:34;;;;;;;13.67;8.83;;;;;;;-2.90;100.00;96234.69;4990755;28;101725;-62
2022/03/13 04:15:01;;;;;;;13.60;9.10;;;;;;;-2.71;100.00;96238.63;4991863;28;102622;-62
2022/03/13 04:17:28;;;;;;;12.80;9.20;;;;;;;-2.52;100.00;96248.59;4990707;28;105747;-62
2022/03/13 04:20:00;;;;;;;15.20;9.33;;;;;;;-2.67;100.00;96245.91;4990373;28;102015;-62
2022/03/13 04:22:28;;;;;;;13.93;9.17;;;;;;;-2.72;100.00;96252.63;4990091;28;105316;-62
2022/03/13 04:24:55;;;;;;;16.97;10.27;;;;;;;-2.73;100.00;96249.22;4991073;28;102930;-62
2022/03/13 04:27:22;;;;;;;14.40;10.03;;;;;;;-2.82;100.00;96252.84;4989398;28;101962;-62
2022/03/13 04:29:51;;;;;;;12.27;9.10;;;;;;;-3.00;100.00;96249.69;4989149;28;105681;-62
2022/03/13 04:32:23;;;;;;;12.80;9.50;;;;;;;-2.84;100.00;96252.19;4994164;28;105250;-62
2022/03/13 04:34:49;;;;;;;14.67;9.50;;;;;;;-3.03;100.00;96257.84;4990212;28;105438;-62
2022/03/13 04:37:20;;;;;;;12.37;9.43;;;;;;;-2.95;100.00;96263.00;4989969;28;105073;-62
2022/03/13 04:40:22;;;;;;;12.77;9.47;;;;;;;-2.97;100.00;96259.75;4991720;28;101669;-62
2022/03/13 04:43:09;;;;;;;14.63;9.03;;;;;;;-2.70;100.00;96267.09;5006444;28;105189;-62
2022/03/13 04:45:36;;;;;;;13.57;9.20;;;;;;;-2.87;100.00;96277.75;4989332;28;105161;-62
2022/03/13 04:48:04;;;;;;;13.83;9.37;;;;;;;-2.89;100.00;96266.72;5009032;28;102060;-62
2022/03/13 04:50:38;;;;;;;14.00;9.57;;;;;;;-2.85;100.00;96268.78;5009859;28;104838;-62
2022/03/13 04:53:07;;;;;;;13.60;9.63;;;;;;;-3.02;100.00;96282.88;5012439;27;104229;-62
2022/03/13 04:55:34;;;;;;;12.97;9.60;;;;;;;-2.85;100.00;96279.19;5032750;28;101923;-63
2022/03/13 04:58:02;;;;;;;12.10;8.87;;;;;;;-2.81;100.00;96288.28;5029108;28;104998;-62
2022/03/13 05:00:29;;;;;;;13.67;9.20;;;;;;;-2.88;100.00;96284.75;5029422;28;101954;-62
2022/03/13 05:02:56;;;;;;;11.80;9.17;;;;;;;-2.87;100.00;96288.16;5029764;28;105287;-62
2022/03/13 05:05:23;;;;;;;13.93;9.77;;;;;;;-2.81;100.00;96295.28;5028728;28;105512;-62
2022/03/13 05:07:50;;;;;;;15.47;9.47;;;;;;;-2.80;100.00;96291.72;5030635;27;101977;-62
2022/03/13 05:10:36;;;;;;;12.40;9.33;;;;;;;-2.86;100.00;96298.41;5029623;27;105708;-62
2022/03/13 05:13:54;;;;;;;13.00;9.40;;;;;;;-2.84;100.00;96311.25;5029051;28;104928;-62
2022/03/13 05:16:21;;;;;;;14.10;9.40;;;;;;;-2.94;100.00;96310.63;5044936;27;102028;-62
2022/03/13 05:18:48;;;;;;;11.27;8.83;;;;;;;-3.09;100.00;96313.13;5028924;28;104332;-62
2022/03/13 05:21:28;;;;;;;12.63;9.07;;;;;;;-3.18;100.00;96314.13;5041515;27;102359;-62
2022/03/13 05:23:56;;;;;;;11.70;8.80;;;;;;;-3.19;100.00;96316.91;5037738;27;105257;-62
2022/03/13 05:26:25;;;;;;;13.13;9.27;;;;;;;-3.18;100.00;96321.94;5047302;27;106755;-62
2022/03/13 05:28:52;;;;;;;14.97;9.87;;;;;;;-3.13;100.00;96327.44;5049295;27;101851;-62
2022/03/13 05:31:19;;;;;;;12.77;9.67;;;;;;;-3.40;100.00;96333.06;5048873;27;105304;-62
2022/03/13 05:33:46;;;;;;;12.53;8.73;;;;;;;-3.35;100.00;96338.56;5048069;27;105399;-62
2022/03/13 05:36:13;;;;;;;13.00;9.57;;;;;;;-3.24;100.00;96329.59;5047739;27;103272;-62
2022/03/13 05:38:40;;;;;;;14.20;9.23;;;;;;;-3.33;100.00;96341.78;5052399;27;105785;-62
2022/03/13 05:42:00;;;;;;;12.70;9.40;;;;;;;-3.46;100.00;96338.09;5049431;27;102091;-62
2022/03/13 05:44:33;;;;;;;10.97;8.67;;;;;;;-3.48;100.00;96345.25;5047645;27;105093;-62
2022/03/13 05:46:59;;;;;;;13.47;9.20;;;;;;;-3.27;100.00;96348.13;5036658;27;106125;-62
2022/03/13 05:49:26;;;;;;;13.87;8.73;;;;;;;-3.41;100.00;96344.44;5046504;27;103848;-62
2022/03/13 05:52:16;;;;;;;14.47;9.13;;;;;;;-3.16;100.00;96347.78;5049483;27;105089;-62
2022/03/13 05:54:44;;;;;;;11.83;9.03;;;;;;;-3.21;100.00;96348.28;5029661;27;105402;-62
2022/03/13 05:57:11;;;;;;;11.87;9.03;;;;;;;-3.20;100.00;96355.09;5028680;28;101901;-62
2022/03/13 06:00:02;;;;;;;13.57;9.97;;;;;;;-3.18;100.00;96347.16;5028822;28;104641;-62
2022/03/13 06:02:31;;;;;;;14.73;9.57;;;;;;;-3.18;100.00;96355.75;5032272;27;102737;-63
2022/03/13 06:04:59;;;;;;;14.70;10.30;;;;;;;-2.95;100.00;96356.63;5028967;28;104727;-63
2022/03/13 06:07:26;;;;;;;13.87;10.00;;;;;;;-2.88;100.00;96356.78;5032260;27;102883;-63
2022/03/13 06:09:53;;;;;;;14.03;9.93;;;;;;;-2.80;100.00;96357.56;5037190;27;101878;-63
2022/03/13 06:12:21;;;;;;;17.10;12.53;;;;;;;-2.49;100.00;96357.56;5028784;28;104191;-63
2022/03/13 06:15:12;;;;;;;17.67;12.00;;;;;;;-2.51;100.00;96360.34;5028289;27;103996;-63
2022/03/13 06:17:44;;;;;;;15.50;11.10;;;;;;;-2.47;100.00;96351.22;5043439;27;101964;-62
2022/03/13 06:20:12;;;;;;;15.27;9.73;;;;;;;-2.42;100.00;96354.13;5034051;27;105140;-63
2022/03/13 06:22:43;;;;;;;14.97;10.03;;;;;;;-2.25;100.00;96358.25;5028055;28;105340;-63
2022/03/13 06:25:13;;;;;;;12.20;10.37;;;;;;;-2.25;100.00;96355.63;5032092;27;101821;-63
2022/03/13 06:27:41;;;;;;;11.80;9.47;;;;;;;-2.10;100.00;96356.53;5044347;27;106061;-63
2022/03/13 06:30:15;;;;;;;11.93;9.23;;;;;;;-1.83;100.00;96352.56;5047738;27;103785;-63
2022/03/13 06:32:44;;;;;;;13.13;9.73;;;;;;;-1.61;100.00;96357.78;5050332;27;102825;-63
2022/03/13 06:35:13;;;;;;;14.47;9.83;;;;;;;-1.53;100.00;96360.28;5044937;27;105781;-63
2022/03/13 06:37:41;;;;;;;15.13;9.73;;;;;;;-1.54;100.00;96361.28;5047835;27;102029;-63
2022/03/13 06:40:22;;;;;;;14.47;10.10;;;;;;;-1.27;100.00;96358.09;5044207;27;106096;-63
2022/03/13 06:43:26;;;;;;;11.80;8.77;;;;;;;-1.02;100.00;96362.09;5026803;28;105405;-63
2022/03/13 06:45:55;;;;;;;11.50;8.87;;;;;;;-0.75;100.00;96358.03;5027909;28;101948;-63
2022/03/13 06:48:22;;;;;;;13.40;8.90;;;;;;;-0.47;100.00;96361.56;5031233;28;103664;-63
2022/03/13 06:51:17;;;;;;;11.90;9.13;;;;;;;-0.22;100.00;96358.44;5029198;27;102190;-63
2022/03/13 06:53:44;;;;;;;9.73;7.97;;;;;;;-0.18;100.00;96359.72;5027910;28;104985;-62
2022/03/13 06:56:11;;;;;;;12.03;9.10;;;;;;;-0.10;100.00;96360.41;5027030;28;105681;-63
2022/03/13 06:58:39;;;;;;;14.00;8.77;;;;;;;-0.13;100.00;96369.63;5028300;28;101984;-63
2022/03/13 07:01:08;;;;;;;12.07;9.00;;;;;;;-0.02;100.00;96369.94;5047852;27;105124;-63
2022/03/13 07:03:35;;;;;;;11.30;9.40;;;;;;;0.10;100.00;96366.66;5051279;27;105504;-63
2022/03/13 07:06:04;;;;;;;10.70;9.07;;;;;;;0.18;100.00;96363.91;5035384;27;101815;-63
2022/03/13 07:08:32;;;;;;;12.07;9.00;;;;;;;0.36;100.00;96372.13;5053039;27;102516;-63
2022/03/13 07:11:34;;;;;;;9.40;8.20;;;;;;;0.44;100.00;96365.97;5053660;27;102105;-63
2022/03/13 07:14:21;;;;;;;10.47;7.67;;;;;;;0.73;100.00;96371.03;5051341;27;102601;-63
2022/03/13 07:16:49;;;;;;;11.70;8.87;;;;;;;0.99;100.00;96369.38;5032504;27;103567;-63
2022/03/13 07:19:16;;;;;;;11.47;9.13;;;;;;;1.04;100.00;96368.84;5032436;27;101930;-63
2022/03/13 07:22:04;;;;;;;11.60;9.33;;;;;;;1.23;100.00;96366.34;5031354;27;104953;-63
2022/03/13 07:24:31;;;;;;;11.10;8.53;;;;;;;1.33;100.00;96364.19;5040847;27;105823;-63
2022/03/13 07:26:58;;;;;;;9.77;8.37;;;;;;;1.45;100.00;96373.09;5051220;27;101696;-63
2022/03/13 07:29:25;;;;;;;12.47;8.70;;;;;;;1.69;100.00;96371.81;5040115;27;105206;-63
2022/03/13 07:32:07;;;;;;;10.47;8.33;;;;;;;1.96;100.00;96368.22;5048895;27;105424;-63
2022/03/13 07:34:34;;;;;;;10.13;8.10;;;;;;;2.13;100.00;96370.31;5052848;27;102395;-63
2022/03/13 07:37:01;;;;;;;10.20;8.13;;;;;;;2.29;100.00;96369.16;5048745;27;105502;-63
2022/03/13 07:39:29;;;;;;;10.10;7.93;;;;;;;2.38;100.00;96367.94;5050942;27;101878;-63
2022/03/13 07:41:56;;;;;;;11.43;8.20;;;;;;;2.52;100.00;96364.31;5051107;27;105666;-63
2022/03/13 07:44:33;;;;;;;9.23;7.73;;;;;;;2.69;100.00;96360.28;5047614;27;105721;-63
2022/03/13 07:47:00;;;;;;;15.17;11.63;;;;;;;2.93;100.00;96370.16;5030869;28;101868;-63
2022/03/13 07:49:29;;;;;;;15.07;9.90;;;;;;;3.05;100.00;96364.09;5029495;27;105518;-63
2022/03/13 07:51:56;;;;;;;13.90;9.60;;;;;;;3.14;100.00;96370.75;5029892;28;105339;-63
2022/03/13 07:54:24;;;;;;;9.43;8.37;;;;;;;3.32;100.00;96363.03;5036326;27;101811;-63
2022/03/13 07:56:51;;;;;;;10.10;8.37;;;;;;;3.50;99.38;96359.75;5035271;27;104240;-63
2022/03/13 07:59:18;;;;;;;9.70;8.07;;;;;;;3.59;97.42;96361.94;5045632;27;103639;-63
2022/03/13 08:05:09;;;;;;;10.77;8.30;;;;;;;4.09;88.04;96366.38;5031545;28;102869;-63
2022/03/13 08:07:36;;;;;;;11.67;7.87;;;;;;;3.54;82.24;96360.94;5030377;28;101704;-63
2022/03/13 08:10:04;;;;;;;10.17;7.83;;;;;;;3.90;82.89;96366.47;5032113;27;105184;-63
2022/03/13 08:12:31;;;;;;;9.87;8.07;;;;;;;4.29;82.62;96366.25;5049037;27;103914;-63
2022/03/13 08:15:32;;;;;;;10.00;7.73;;;;;;;4.58;76.00;96363.84;5041655;27;102266;-63
2022/03/13 08:17:59;;;;;;;11.80;8.40;;;;;;;4.93;72.26;96366.81;5033227;28;105149;-64
2022/03/13 08:20:34;;;;;;;14.10;9.77;;;;;;;4.65;70.35;96366.44;5033074;27;101807;-64
2022/03/13 08:23:02;;;;;;;12.20;8.70;;;;;;;5.23;73.71;96367.78;5050571;27;105033;-64
2022/03/13 08:25:30;;;;;;;11.47;8.30;;;;;;;5.57;69.86;96361.94;5046949;27;105918;-64
2022/03/13 08:27:57;;;;;;;10.90;8.47;;;;;;;5.77;69.48;96370.41;5050537;27;102067;-64
2022/03/13 08:30:29;;;;;;;13.77;9.27;;;;;;;5.76;70.41;96352.97;5045124;27;105220;-65
2022/03/13 08:32:56;;;;;;;13.83;10.07;;;;;;;5.51;69.00;96357.53;5029362;28;105595;-65
2022/03/13 08:35:24;;;;;;;13.13;9.00;;;;;;;5.46;70.19;96352.91;5029398;27;101867;-64
2022/03/13 08:37:55;;;;;;;12.40;8.37;;;;;;;5.49;75.70;96357.75;5037891;27;105268;-65
2022/03/13 08:40:26;;;;;;;10.83;7.30;;;;;;;5.61;76.54;96352.53;5052159;27;105689;-67
2022/03/13 08:43:22;;;;;;;8.97;7.30;;;;;;;5.60;76.71;96357.03;5049647;27;105116;-66
2022/03/13 08:45:49;;;;;;;10.27;7.50;;;;;;;5.72;83.20;96352.63;5035020;27;105035;-66
2022/03/13 08:48:16;;;;;;;9.97;7.73;;;;;;;6.34;79.79;96349.59;5044931;27;101895;-66
2022/03/13 08:50:43;;;;;;;8.43;7.40;;;;;;;6.42;72.92;96343.19;5033072;27;105985;-66
2022/03/13 08:53:12;;;;;;;16.20;11.27;;;;;;;6.51;72.03;96341.84;5041837;27;105472;-66
2022/03/13 08:55:39;;;;;;;15.00;10.67;;;;;;;6.52;69.67;96341.63;5047074;27;101800;-66
2022/03/13 08:58:08;;;;;;;12.07;9.50;;;;;;;6.71;66.94;96343.16;5028724;28;105652;-66
2022/03/13 09:00:40;;;;;;;9.03;7.57;;;;;;;6.84;67.72;96340.31;5030630;27;103687;-66
2022/03/13 09:03:07;;;;;;;15.53;9.23;;;;;;;7.26;66.58;96338.38;5055055;27;101658;-66
2022/03/13 09:05:34;;;;;;;26.10;16.37;;;;;;;7.30;62.56;96335.03;5048745;27;105252;-66
2022/03/13 09:08:01;;;;;;;25.50;15.20;;;;;;;7.04;61.64;96337.34;5028558;28;101974;-66
2022/03/13 09:10:39;;;;;;;16.53;11.93;;;;;;;7.67;61.55;96332.91;5028413;28;105030;-67
2022/03/13 09:13:13;;;;;;;17.87;11.40;;;;;;;8.04;58.36;96337.66;5027911;28;104934;-66
2022/03/13 09:15:40;;;;;;;17.07;10.97;;;;;;;8.55;57.74;96340.22;5028331;28;101952;-66
2022/03/13 09:18:07;;;;;;;14.23;9.87;;;;;;;8.93;55.33;96332.41;5028274;28;104029;-66
2022/03/13 09:20:45;;;;;;;10.23;8.07;;;;;;;9.05;54.63;96334.97;5028511;28;105436;-66
2022/03/13 09:23:12;;;;;;;12.13;9.00;;;;;;;9.09;53.95;96344.03;5032777;28;101835;-66
2022/03/13 09:25:40;;;;;;;10.87;8.70;;;;;;;9.27;51.54;96344.59;5027443;27;105000;-65
2022/03/13 09:28:08;;;;;;;9.43;8.40;;;;;;;9.01;52.13;96334.66;5029240;28;101930;-67
2022/03/13 09:30:49;;;;;;;9.90;7.90;;;;;;;9.09;52.77;96328.94;5033402;27;102461;-65
2022/03/13 09:33:16;;;;;;;8.53;7.57;;;;;;;9.50;54.61;96332.97;5029799;27;104985;-66
2022/03/13 09:35:44;;;;;;;8.80;7.57;;;;;;;9.85;51.28;96325.47;5033497;27;102015;-66
2022/03/13 09:38:11;;;;;;;11.47;8.30;;;;;;;10.29;52.30;96327.88;5029024;28;105097;-66
2022/03/13 09:40:38;;;;;;;11.70;7.63;;;;;;;10.64;49.91;96319.47;5029528;27;105332;-66
2022/03/13 09:43:20;;;;;;;8.50;7.43;;;;;;;10.72;47.71;96317.16;5048011;27;101839;-66
2022/03/13 09:45:47;;;;;;;10.10;7.93;;;;;;;10.96;47.45;96318.41;5051880;27;102302;-66
2022/03/13 09:48:15;;;;;;;10.90;8.30;;;;;;;11.12;46.40;96316.69;5049352;27;101924;-66
2022/03/13 09:51:24;;;;;;;8.87;7.93;;;;;;;11.17;45.59;96316.72;5048626;27;102579;-66
2022/03/13 09:53:51;;;;;;;9.40;7.87;;;;;;;11.53;44.42;96319.34;5047747;27;106280;-65
2022/03/13 09:56:20;;;;;;;11.50;8.10;;;;;;;11.71;44.98;96313.63;5045149;27;101868;-66
2022/03/13 09:58:48;;;;;;;10.20;8.70;;;;;;;11.70;42.93;96321.88;5029075;28;104752;-65
2022/03/13 10:01:53;;;;;;;10.63;8.70;;;;;;;11.71;42.21;96304.81;5027903;28;105398;-65
2022/03/13 10:04:20;;;;;;;9.73;8.20;;;;;;;11.99;42.72;96312.44;5028969;28;102029;-65
2022/03/13 10:07:01;;;;;;;10.47;8.00;;;;;;;12.26;42.16;96307.72;5049223;27;105473;-65
2022/03/13 10:09:30;;;;;;;10.00;8.10;;;;;;;12.36;41.48;96302.41;5051928;27;105811;-65
2022/03/13 10:12:09;;;;;;;9.37;7.57;;;;;;;12.66;40.15;96303.28;5039817;27;105124;-65
2022/03/13 10:15:03;;;;;;;11.70;7.73;;;;;;;12.77;39.48;96302.22;5034294;27;105427;-65
2022/03/13 10:17:31;;;;;;;9.33;7.73;;;;;;;12.55;38.89;96295.50;5030118;27;101870;-65
2022/03/13 10:20:41;;;;;;;9.80;8.40;;;;;;;12.34;38.26;96301.88;5028665;28;105289;-65
2022/03/13 10:23:11;;;;;;;10.83;7.50;;;;;;;12.71;36.71;96292.59;5028207;28;105444;-65
2022/03/13 10:25:39;;;;;;;9.70;7.53;;;;;;;13.14;38.17;96296.66;5030036;27;101938;-65
2022/03/13 10:28:15;;;;;;;9.20;6.97;;;;;;;13.45;37.54;96293.66;5029712;27;102284;-66
2022/03/13 10:30:45;;;;;;;9.20;7.27;;;;;;;13.36;38.13;96294.47;5028776;27;103323;-65
2022/03/13 10:33:12;;;;;;;10.97;7.57;;;;;;;12.91;37.28;96292.59;5031562;28;101874;-65
2022/03/13 10:35:40;;;;;;;10.03;7.80;;;;;;;12.80;36.68;96292.88;5027943;28;103758;-66
2022/03/13 10:38:16;;;;;;;8.50;7.30;;;;;;;12.58;36.99;96287.78;5033464;27;101940;-65
2022/03/13 10:40:47;;;;;;;8.70;7.43;;;;;;;12.77;38.83;96282.72;5033064;27;102385;-65
2022/03/13 10:43:27;;;;;;;8.67;7.57;;;;;;;12.81;39.46;96275.81;5031355;28;105778;-65
2022/03/13 10:45:58;;;;;;;9.00;7.70;;;;;;;12.53;39.85;96273.66;5033162;27;101844;-65
2022/03/13 10:48:29;;;;;;;9.17;7.40;;;;;;;13.81;40.68;96264.97;5031842;28;105339;-65
2022/03/13 10:50:58;;;;;;;9.30;7.33;;;;;;;14.17;38.72;96277.91;5031959;27;106022;-65
2022/03/13 10:53:26;;;;;;;9.80;7.53;;;;;;;14.39;38.15;96274.88;5031538;27;101915;-66
2022/03/13 10:56:17;;;;;;;8.77;7.67;;;;;;;14.28;38.25;96274.13;5035598;27;104033;-66
2022/03/13 10:58:47;;;;;;;7.97;7.03;;;;;;;14.78;35.21;96270.34;5022565;27;105778;-65
2022/03/13 11:01:18;;;;;;;9.00;7.63;;;;;;;15.15;35.64;96267.91;5032583;27;105175;-65
2022/03/13 11:03:52;;;;;;;8.17;7.37;;;;;;;14.46;34.13;96259.31;5030955;28;105083;-65
2022/03/13 11:06:19;;;;;;;7.50;6.77;;;;;;;14.99;35.67;96264.53;5032626;27;101984;-65
2022/03/13 11:08:47;;;;;;;9.23;7.70;;;;;;;15.45;34.88;96262.25;5031593;28;105211;-65
2022/03/13 11:11:56;;;;;;;8.83;7.20;;;;;;;15.54;35.12;96257.88;5034235;27;105530;-65
2022/03/13 11:14:29;;;;;;;8.13;7.33;;;;;;;14.12;35.15;96256.53;5050972;27;101846;-65
2022/03/13 11:17:01;;;;;;;9.47;7.50;;;;;;;14.60;35.09;96250.38;5051725;27;104825;-65
2022/03/13 11:19:30;;;;;;;15.47;14.00;;;;;;;14.86;35.48;96242.94;5049804;27;105289;-65
2022/03/13 11:21:56;;;;;;;8.83;7.87;;;;;;;15.54;36.29;96244.50;5034269;27;105701;-65
2022/03/13 11:24:25;;;;;;;8.07;7.27;;;;;;;16.02;34.38;96241.47;5045636;27;105306;-68
2022/03/13 11:26:53;;;;;;;10.80;7.20;;;;;;;16.18;32.90;96247.47;5051374;27;103302;-68
2022/03/13 11:29:43;;;;;;;8.17;7.00;;;;;;;16.01;31.65;96233.72;5050702;27;105126;-68
2022/03/13 11:32:40;;;;;;;8.63;5.70;;;;;;;16.27;31.83;96230.44;5050867;27;105204;-66
2022/03/13 11:35:22;;;;;;;10.37;8.53;;;;;;;16.77;30.80;96235.06;5048040;27;101825;-66
2022/03/13 11:37:51;;;;;;;15.90;11.37;;;;;;;17.04;32.20;96226.31;5050702;27;104996;-66
2022/03/13 11:40:29;;;;;;;7.90;6.67;;;;;;;16.39;31.90;96228.13;5054794;27;102679;-66
2022/03/13 11:43:09;;;;;;;8.47;7.57;;;;;;;16.80;33.37;96220.28;5051889;27;102404;-65
2022/03/13 11:45:39;;;;;;;7.00;6.30;;;;;;;15.85;31.55;96222.41;5048692;27;105844;-66